Time;durP1;ratioP1;P1;durP2;ratioP2;P2;SDS_P1;SDS_P2;PMS_P1;PMS_P2;Temp;Humidity;BMP_temperature;BMP_pressure;BME280_temperature;BME280_humidity;BME280_pressure;Samples;Min_cycle;Max_cycle;Signal;HPM_P1;HPM_P2
2022/10/05 00:00:50;;;;;;;;;;;;;;;3.85;100.00;95868.81;5055366;28;20028;-69
2022/10/05 00:03:17;;;;;;;;;;;;;;;3.80;100.00;95871.91;5055677;28;19925;-68
2022/10/05 00:05:44;;;;;;;;;;;;;;;3.90;100.00;95864.78;5047077;28;20398;-68
2022/10/05 00:08:16;;;;;;;;;;;;;;;3.98;100.00;95869.94;5048231;28;19925;-68
2022/10/05 00:10:44;;;;;;;;;;;;;;;4.08;100.00;95868.94;5050804;28;20021;-68
2022/10/05 00:13:15;;;;;;;;;;;;;;;4.08;100.00;95868.94;5040937;28;19986;-68
2022/10/05 00:15:42;;;;;;;;;;;;;;;3.97;100.00;95868.31;5043948;28;20401;-67
2022/10/05 00:18:12;;;;;;;;;;;;;;;3.96;100.00;95871.88;5056581;28;19993;-68
2022/10/05 00:20:40;;;;;;;;;;;;;;;3.88;100.00;95869.28;5047333;28;19932;-68
2022/10/05 00:23:12;;;;;;;;;;;;;;;3.83;100.00;95871.56;5050908;28;20010;-68
2022/10/05 00:25:38;;;;;;;;;;;;;;;3.78;100.00;95868.66;5078911;28;20693;-68
2022/10/05 00:28:11;;;;;;;;;;;;;;;3.59;100.00;95865.44;5048126;28;20636;-68
2022/10/05 00:30:38;;;;;;;;;;;;;;;3.44;100.00;95872.22;5047870;28;19970;-68
2022/10/05 00:33:04;;;;;;;;;;;;;;;3.53;100.00;95866.09;5046639;28;20008;-68
2022/10/05 00:35:33;;;;;;;;;;;;;;;3.49;100.00;95869.94;5048034;28;19972;-68
2022/10/05 00:38:00;;;;;;;;;;;;;;;3.44;100.00;95861.94;5080011;28;19925;-68
2022/10/05 00:40:36;;;;;;;;;;;;;;;3.35;100.00;95865.44;5049067;28;19940;-68
2022/10/05 00:43:03;;;;;;;;;;;;;;;3.23;100.00;95865.75;5073889;28;19978;-69
2022/10/05 00:45:35;;;;;;;;;;;;;;;3.18;100.00;95868.00;5055411;28;19941;-68
2022/10/05 00:48:24;;;;;;;;;;;;;;;3.38;100.00;95867.69;5047991;28;19932;-68
2022/10/05 00:50:54;;;;;;;;;;;;;;;3.23;100.00;95868.34;5054959;28;19932;-68
2022/10/05 00:53:23;;;;;;;;;;;;;;;3.32;100.00;95863.22;5041961;28;19963;-68
2022/10/05 00:55:57;;;;;;;;;;;;;;;3.60;100.00;95869.66;5039715;28;19976;-67
2022/10/05 00:58:42;;;;;;;;;;;;;;;3.59;100.00;95869.81;5048183;28;20203;-67
2022/10/05 01:01:09;;;;;;;;;;;;;;;3.69;100.00;95885.09;5057089;28;19925;-68
2022/10/05 01:03:49;;;;;;;;;;;;;;;3.60;100.00;95885.09;5051240;28;20891;-68
2022/10/05 01:06:34;;;;;;;;;;;;;;;3.71;100.00;95893.47;5061226;28;20023;-68
2022/10/05 01:09:01;;;;;;;;;;;;;;;3.59;100.00;95895.56;5056282;28;20421;-68
2022/10/05 01:11:31;;;;;;;;;;;;;;;3.52;100.00;95894.59;5058355;28;20019;-68
2022/10/05 01:14:31;;;;;;;;;;;;;;;3.52;100.00;95890.25;5054197;28;19928;-68
2022/10/05 01:17:04;;;;;;;;;;;;;;;3.55;100.00;95895.09;5039938;28;20719;-68
2022/10/05 01:19:40;;;;;;;;;;;;;;;3.47;100.00;95897.66;5055438;28;20635;-68
2022/10/05 01:22:25;;;;;;;;;;;;;;;3.34;100.00;95897.31;5050664;28;19928;-68
2022/10/05 01:25:01;;;;;;;;;;;;;;;3.28;100.00;95908.25;5052618;28;19933;-68
2022/10/05 01:27:30;;;;;;;;;;;;;;;3.29;100.00;95894.41;5046060;28;19929;-68
2022/10/05 01:30:11;;;;;;;;;;;;;;;3.34;100.00;95902.47;5046741;28;20564;-68
2022/10/05 01:32:38;;;;;;;;;;;;;;;3.20;100.00;95907.25;5049082;28;19925;-67
2022/10/05 01:35:08;;;;;;;;;;;;;;;3.16;100.00;95900.81;5053838;28;20634;-68
2022/10/05 01:37:37;;;;;;;;;;;;;;;3.10;100.00;95895.50;5051164;28;20344;-67
2022/10/05 01:40:13;;;;;;;;;;;;;;;3.22;100.00;95900.22;5053636;28;19932;-68
2022/10/05 01:42:42;;;;;;;;;;;;;;;3.15;100.00;95919.81;5054681;28;19983;-68
2022/10/05 01:45:19;;;;;;;;;;;;;;;3.12;100.00;95915.00;5045681;28;19968;-66
2022/10/05 01:47:50;;;;;;;;;;;;;;;3.00;100.00;95921.38;5050476;28;20016;-68
2022/10/05 01:50:36;;;;;;;;;;;;;;;2.97;100.00;95921.69;5040885;28;20018;-68
2022/10/05 01:53:06;;;;;;;;;;;;;;;2.90;100.00;95925.84;5042956;28;19928;-68
2022/10/05 01:55:52;;;;;;;;;;;;;;;2.96;100.00;95925.25;5042766;28;19960;-68
2022/10/05 01:58:26;;;;;;;;;;;;;;;2.83;100.00;95931.63;5045707;28;19970;-68
2022/10/05 02:01:05;;;;;;;;;;;;;;;2.77;100.00;95929.66;5039353;28;20421;-67
2022/10/05 02:03:40;;;;;;;;;;;;;;;2.95;100.00;95939.06;5046800;28;20421;-67
2022/10/05 02:06:11;;;;;;;;;;;;;;;2.95;100.00;95939.06;5042718;28;19990;-67
2022/10/05 02:08:45;;;;;;;;;;;;;;;2.83;100.00;95947.06;5044746;28;19925;-67
2022/10/05 02:11:13;;;;;;;;;;;;;;;2.66;100.00;95945.38;5046018;28;19928;-68
2022/10/05 02:13:49;;;;;;;;;;;;;;;2.72;100.00;95943.94;5078086;28;19925;-67
2022/10/05 02:16:30;;;;;;;;;;;;;;;2.87;100.00;95943.22;5044786;28;19935;-68
2022/10/05 02:19:01;;;;;;;;;;;;;;;2.87;100.00;95948.34;5078938;28;19933;-67
2022/10/05 02:21:30;;;;;;;;;;;;;;;2.77;100.00;95947.66;5056894;28;19928;-67
2022/10/05 02:23:58;;;;;;;;;;;;;;;2.78;100.00;95941.56;5044693;28;19951;-67
2022/10/05 02:26:26;;;;;;;;;;;;;;;2.70;100.00;95938.16;5082451;28;20409;-68
2022/10/05 02:28:53;;;;;;;;;;;;;;;2.59;100.00;95941.81;5048045;28;19932;-68
2022/10/05 02:31:23;;;;;;;;;;;;;;;2.71;100.00;95953.44;5048259;28;19925;-69
2022/10/05 02:33:49;;;;;;;;;;;;;;;2.83;100.00;95961.72;5045353;28;19932;-69
2022/10/05 02:36:37;;;;;;;;;;;;;;;2.77;100.00;95957.16;5051728;28;19932;-69
2022/10/05 02:39:11;;;;;;;;;;;;;;;2.64;100.00;95957.59;5044640;28;19929;-68
2022/10/05 02:41:41;;;;;;;;;;;;;;;2.67;100.00;95957.28;5045561;28;19933;-66
2022/10/05 02:44:38;;;;;;;;;;;;;;;2.64;100.00;95958.38;5049598;28;20421;-69
2022/10/05 02:47:17;;;;;;;;;;;;;;;2.47;100.00;95957.50;5028603;28;19929;-68
2022/10/05 02:49:51;;;;;;;;;;;;;;;2.48;100.00;95959.13;5045962;28;21475;-68
2022/10/05 02:52:24;;;;;;;;;;;;;;;2.30;100.00;95955.78;5048407;28;19928;-68
2022/10/05 02:54:59;;;;;;;;;;;;;;;2.32;100.00;95959.00;5047639;28;20007;-68
2022/10/05 02:57:41;;;;;;;;;;;;;;;2.35;100.00;95948.44;5052700;28;20008;-68
2022/10/05 03:00:20;;;;;;;;;;;;;;;2.30;100.00;95960.94;5049143;28;19924;-67
2022/10/05 03:03:05;;;;;;;;;;;;;;;2.39;100.00;95972.88;5051127;28;19928;-68
2022/10/05 03:05:39;;;;;;;;;;;;;;;2.24;100.00;95971.84;5055391;28;20042;-68
2022/10/05 03:08:12;;;;;;;;;;;;;;;2.21;100.00;95967.78;5047638;28;19931;-68
2022/10/05 03:10:51;;;;;;;;;;;;;;;2.30;100.00;95966.06;5047745;28;19990;-68
2022/10/05 03:13:18;;;;;;;;;;;;;;;2.28;100.00;95970.56;5043269;28;19940;-68
2022/10/05 03:16:05;;;;;;;;;;;;;;;2.38;100.00;95968.72;5047000;28;20070;-67
2022/10/05 03:18:34;;;;;;;;;;;;;;;2.31;100.00;95962.56;5050146;28;19959;-67
2022/10/05 03:21:03;;;;;;;;;;;;;;;2.23;100.00;95959.94;5046320;28;19924;-68
2022/10/05 03:23:43;;;;;;;;;;;;;;;2.10;100.00;95961.13;5042849;28;19925;-67
2022/10/05 03:26:35;;;;;;;;;;;;;;;2.05;100.00;95963.38;5043687;28;20015;-68
2022/10/05 03:29:07;;;;;;;;;;;;;;;2.16;100.00;95969.19;5053250;28;19964;-68
2022/10/05 03:31:55;;;;;;;;;;;;;;;2.19;100.00;95974.03;5046879;28;20479;-67
2022/10/05 03:34:28;;;;;;;;;;;;;;;2.18;100.00;95977.56;5046292;28;19931;-68
2022/10/05 03:37:09;;;;;;;;;;;;;;;2.14;100.00;95981.41;5076343;28;19936;-67
2022/10/05 03:39:43;;;;;;;;;;;;;;;2.07;100.00;95976.88;5079590;28;20389;-68
2022/10/05 03:42:11;;;;;;;;;;;;;;;2.05;100.00;95973.66;5041806;28;19970;-68
2022/10/05 03:44:52;;;;;;;;;;;;;;;2.22;100.00;95978.91;5043142;28;19932;-68
2022/10/05 03:47:28;;;;;;;;;;;;;;;2.23;100.00;95977.91;5044690;28;19932;-68
2022/10/05 03:50:13;;;;;;;;;;;;;;;2.32;100.00;95989.88;5045391;28;19935;-67
2022/10/05 03:52:53;;;;;;;;;;;;;;;2.28;100.00;96004.00;5046480;28;19930;-67
2022/10/05 03:55:25;;;;;;;;;;;;;;;2.05;100.00;96004.47;5083536;28;19929;-72
2022/10/05 03:57:55;;;;;;;;;;;;;;;1.92;100.00;96009.97;5050264;28;19983;-72
2022/10/05 04:00:25;;;;;;;;;;;;;;;1.85;100.00;96013.28;5048433;28;20425;-73
2022/10/05 04:03:04;;;;;;;;;;;;;;;1.91;100.00;96007.56;5045406;28;19936;-72
2022/10/05 04:05:35;;;;;;;;;;;;;;;1.99;100.00;95999.13;5054569;28;19935;-72
2022/10/05 04:08:20;;;;;;;;;;;;;;;2.00;100.00;96004.13;5054955;28;19925;-70
2022/10/05 04:10:49;;;;;;;;;;;;;;;2.06;100.00;96000.94;5046061;28;20006;-67
2022/10/05 04:13:29;;;;;;;;;;;;;;;2.09;100.00;96000.66;5053606;28;20653;-68
2022/10/05 04:16:00;;;;;;;;;;;;;;;2.24;100.00;96002.69;5084137;28;19972;-67
2022/10/05 04:18:27;;;;;;;;;;;;;;;2.02;100.00;96004.78;5055452;28;20433;-69
2022/10/05 04:21:00;;;;;;;;;;;;;;;2.01;100.00;96018.56;5047493;28;19933;-69
2022/10/05 04:23:47;;;;;;;;;;;;;;;2.06;100.00;96025.84;5082126;28;19939;-74
2022/10/05 04:26:17;;;;;;;;;;;;;;;1.94;100.00;96024.44;5045110;28;19925;-69
2022/10/05 04:28:47;;;;;;;;;;;;;;;1.83;100.00;96035.75;5055276;28;19932;-71
2022/10/05 04:31:18;;;;;;;;;;;;;;;2.01;100.00;96033.97;5048287;28;19928;-67
2022/10/05 04:33:52;;;;;;;;;;;;;;;1.99;100.00;96033.31;5068816;28;20021;-68
2022/10/05 04:36:26;;;;;;;;;;;;;;;1.95;100.00;96029.44;5086347;28;19967;-69
2022/10/05 04:42:25;;;;;;;;;;;;;;;1.92;100.00;96040.81;5083713;27;19920;-72
2022/10/05 04:44:52;;;;;;;;;;;;;;;2.15;100.00;96044.72;5079851;28;19925;-73
2022/10/05 04:47:43;;;;;;;;;;;;;;;2.51;100.00;96050.59;5078749;28;19932;-68
2022/10/05 04:50:29;;;;;;;;;;;;;;;2.74;100.00;96050.91;5079895;28;19936;-68
2022/10/05 04:53:07;;;;;;;;;;;;;;;2.89;100.00;96052.91;5073978;28;19928;-67
2022/10/05 04:55:51;;;;;;;;;;;;;;;2.85;100.00;96047.28;5079270;28;19920;-67
2022/10/05 04:58:26;;;;;;;;;;;;;;;2.80;100.00;96040.00;5104628;27;20062;-68
2022/10/05 05:01:09;;;;;;;;;;;;;;;2.75;100.00;96052.50;5077640;28;19928;-67
2022/10/05 05:03:36;;;;;;;;;;;;;;;2.43;100.00;96011.94;5073909;28;19925;-67
2022/10/05 05:06:15;;;;;;;;;;;;;;;2.59;100.00;96057.56;5078541;28;19967;-68
2022/10/05 05:09:06;;;;;;;;;;;;;;;2.76;100.00;96054.13;5109937;27;19928;-68
2022/10/05 05:11:37;;;;;;;;;;;;;;;2.85;100.00;96055.00;5076973;28;19928;-68
2022/10/05 05:14:33;;;;;;;;;;;;;;;2.92;100.00;96047.44;5072236;28;19959;-68
2022/10/05 05:17:11;;;;;;;;;;;;;;;3.20;100.00;96056.59;5060324;28;20596;-69
2022/10/05 05:19:39;;;;;;;;;;;;;;;3.18;100.00;96063.66;5103991;27;19932;-69
2022/10/05 05:22:41;;;;;;;;;;;;;;;3.33;100.00;96065.66;5077989;28;19929;-69
2022/10/05 05:25:26;;;;;;;;;;;;;;;3.37;100.00;96072.94;5041294;28;19925;-68
2022/10/05 05:27:57;;;;;;;;;;;;;;;3.47;100.00;96074.56;5078993;28;19932;-69
2022/10/05 05:30:25;;;;;;;;;;;;;;;3.60;100.00;96083.47;5111803;27;19928;-68
2022/10/05 05:32:52;;;;;;;;;;;;;;;3.42;100.00;96080.16;5085320;28;20074;-69
2022/10/05 05:35:18;;;;;;;;;;;;;;;3.77;100.00;96083.53;5072645;28;19947;-68
2022/10/05 05:37:45;;;;;;;;;;;;;;;3.75;100.00;96088.03;5078319;28;19935;-68
2022/10/05 05:40:12;;;;;;;;;;;;;;;3.94;100.00;96085.19;5079083;28;20005;-68
2022/10/05 05:42:50;;;;;;;;;;;;;;;4.01;100.00;96091.28;5075511;28;19971;-69
2022/10/05 05:45:22;;;;;;;;;;;;;;;4.26;100.00;96093.09;5078655;28;19932;-69
2022/10/05 05:47:53;;;;;;;;;;;;;;;4.25;100.00;96097.47;5075432;28;19928;-69
2022/10/05 05:50:48;;;;;;;;;;;;;;;4.42;100.00;96097.47;5074643;28;19931;-66
2022/10/05 05:53:17;;;;;;;;;;;;;;;4.66;100.00;96100.03;5066515;28;19924;-67
2022/10/05 05:56:00;;;;;;;;;;;;;;;4.90;100.00;96098.41;5077235;28;19927;-66
2022/10/05 05:58:31;;;;;;;;;;;;;;;4.97;100.00;96096.78;5059481;28;19950;-67
2022/10/05 06:01:04;;;;;;;;;;;;;;;5.09;100.00;96095.44;5058889;28;20055;-67
2022/10/05 06:03:42;;;;;;;;;;;;;;;5.10;100.00;96102.22;5061898;28;20691;-67
2022/10/05 06:06:14;;;;;;;;;;;;;;;5.19;100.00;96102.22;5059946;28;19933;-66
2022/10/05 06:08:43;;;;;;;;;;;;;;;5.33;100.00;96107.50;5073868;28;19936;-67
2022/10/05 06:11:39;;;;;;;;;;;;;;;5.59;100.00;96113.38;5059661;28;19924;-67
2022/10/05 06:14:13;;;;;;;;;;;;;;;5.84;100.00;96114.88;5059885;28;19932;-66
2022/10/05 06:16:56;;;;;;;;;;;;;;;6.10;100.00;96118.97;5061582;28;19975;-66
2022/10/05 06:19:26;;;;;;;;;;;;;;;6.36;100.00;96123.81;5089718;27;20018;-66
2022/10/05 06:22:05;;;;;;;;;;;;;;;6.44;100.00;96125.53;5095709;27;19939;-66
2022/10/05 06:24:58;;;;;;;;;;;;;;;6.64;100.00;96121.50;5056566;28;19986;-66
2022/10/05 06:27:57;;;;;;;;;;;;;;;6.66;100.00;96129.09;5068291;28;20583;-67
2022/10/05 06:30:26;;;;;;;;;;;;;;;6.86;100.00;96144.94;5067598;28;20340;-66
2022/10/05 06:33:28;;;;;;;;;;;;;;;7.01;100.00;96145.78;5063912;28;19939;-66
2022/10/05 06:36:21;;;;;;;;;;;;;;;7.25;100.00;96146.53;4984876;28;19925;-68
2022/10/05 06:39:14;;;;;;;;;;;;;;;7.45;100.00;96145.03;5026151;28;20661;-68
2022/10/05 06:41:47;;;;;;;;;;;;;;;7.66;100.00;96149.50;5065053;28;19932;-67
2022/10/05 06:44:14;;;;;;;;;;;;;;;7.82;100.00;96151.09;5061985;28;19928;-67
2022/10/05 06:47:10;;;;;;;;;;;;;;;7.96;100.00;96161.63;5065958;28;19958;-67
2022/10/05 06:50:03;;;;;;;;;;;;;;;7.96;100.00;96156.44;5065613;28;19928;-68
2022/10/05 06:53:07;;;;;;;;;;;;;;;8.10;100.00;96163.38;5055047;28;20667;-68
2022/10/05 06:55:48;;;;;;;;;;;;;;;8.12;100.00;96161.44;5070905;28;19951;-71
2022/10/05 06:58:15;;;;;;;;;;;;;;;8.22;100.00;96172.31;5080088;28;20396;-71
2022/10/05 07:00:41;;;;;;;;;;;;;;;8.37;100.00;96168.88;5077713;28;20517;-70
2022/10/05 07:03:19;;;;;;;;;;;;;;;8.59;100.00;96167.94;5111108;27;19951;-72
2022/10/05 07:05:45;;;;;;;;;;;;;;;8.73;100.00;96165.44;5073833;28;19955;-74
2022/10/05 07:08:16;;;;;;;;;;;;;;;8.80;100.00;96163.72;5072118;28;19927;-72
2022/10/05 07:11:01;;;;;;;;;;;;;;;9.04;100.00;96164.31;5069161;28;19931;-69
2022/10/05 07:13:47;;;;;;;;;;;;;;;9.17;100.00;96164.41;5067713;28;19924;-69
2022/10/05 07:16:35;;;;;;;;;;;;;;;9.37;100.00;96167.94;5086183;28;19984;-74
2022/10/05 07:19:28;;;;;;;;;;;;;;;9.41;100.00;96162.38;5065931;28;19928;-72
2022/10/05 07:22:13;;;;;;;;;;;;;;;9.54;100.00;96160.66;5063666;28;19929;-71
2022/10/05 07:25:01;;;;;;;;;;;;;;;9.62;100.00;96167.50;5073736;28;20204;-71
2022/10/05 07:27:33;;;;;;;;;;;;;;;9.74;100.00;96171.19;5057682;28;19962;-71
2022/10/05 07:30:03;;;;;;;;;;;;;;;9.84;100.00;96162.22;5074177;28;20002;-70
2022/10/05 07:32:36;;;;;;;;;;;;;;;9.98;100.00;96166.47;5058785;28;20019;-68
2022/10/05 07:38:11;;;;;;;;;;;;;;;9.81;100.00;96160.00;5067665;28;19935;-70
2022/10/05 07:40:46;;;;;;;;;;;;;;;9.90;100.00;96158.81;5062082;28;20401;-70
2022/10/05 07:43:31;;;;;;;;;;;;;;;9.90;100.00;96159.66;5057406;28;20023;-74
2022/10/05 07:46:37;;;;;;;;;;;;;;;9.84;100.00;96164.81;5094703;27;19924;-73
2022/10/05 07:49:17;;;;;;;;;;;;;;;9.77;100.00;96162.97;5072000;28;19924;-74
2022/10/05 07:51:53;;;;;;;;;;;;;;;9.82;100.00;96164.22;5064510;28;19959;-74
2022/10/05 07:54:39;;;;;;;;;;;;;;;9.90;100.00;96166.63;5075416;27;19947;-73
2022/10/05 07:57:26;;;;;;;;;;;;;;;10.24;100.00;96167.56;5060780;28;19933;-72
2022/10/05 07:59:56;;;;;;;;;;;;;;;10.47;100.00;96170.66;5050835;28;20748;-72
2022/10/05 08:02:33;;;;;;;;;;;;;;;10.47;100.00;96175.09;5061172;28;20017;-72
2022/10/05 08:05:17;;;;;;;;;;;;;;;10.61;100.00;96181.13;5063455;28;19998;-72
2022/10/05 08:07:44;;;;;;;;;;;;;;;10.75;100.00;96176.72;5063229;28;19925;-72
2022/10/05 08:10:20;;;;;;;;;;;;;;;10.76;100.00;96184.34;5060040;28;19950;-71
2022/10/05 08:12:47;;;;;;;;;;;;;;;10.86;100.00;96182.16;5065010;28;19967;-72
2022/10/05 08:15:15;;;;;;;;;;;;;;;10.98;100.00;96181.56;5059181;28;20516;-72
2022/10/05 08:17:57;;;;;;;;;;;;;;;11.05;100.00;96184.97;5058603;28;19931;-72
2022/10/05 08:20:29;;;;;;;;;;;;;;;11.09;100.00;96188.78;5060197;28;20623;-74
2022/10/05 08:23:09;;;;;;;;;;;;;;;11.47;100.00;96196.00;5067827;28;20225;-75
2022/10/05 08:25:49;;;;;;;;;;;;;;;11.56;100.00;96193.97;5061100;28;19935;-69
2022/10/05 08:28:21;;;;;;;;;;;;;;;11.74;100.00;96185.50;5062509;28;19965;-74
2022/10/05 08:30:59;;;;;;;;;;;;;;;11.82;100.00;96182.69;5059509;28;20035;-67
2022/10/05 08:33:31;;;;;;;;;;;;;;;11.60;100.00;96185.53;5063054;28;19930;-68
2022/10/05 08:36:06;;;;;;;;;;;;;;;11.94;100.00;96185.47;5064980;28;19928;-68
2022/10/05 08:38:33;;;;;;;;;;;;;;;12.21;100.00;96186.19;5066671;28;19977;-69
2022/10/05 08:41:06;;;;;;;;;;;;;;;11.96;100.00;96192.09;5061191;28;19985;-69
2022/10/05 08:43:35;;;;;;;;;;;;;;;12.03;100.00;96179.84;5056953;28;20013;-69
2022/10/05 08:46:20;;;;;;;;;;;;;;;12.11;100.00;96181.41;5059043;28;19924;-68
2022/10/05 08:49:03;;;;;;;;;;;;;;;12.28;100.00;96180.94;5059958;28;20031;-69
2022/10/05 08:51:48;;;;;;;;;;;;;;;12.54;100.00;96172.16;5062661;28;19998;-69
2022/10/05 08:54:35;;;;;;;;;;;;;;;12.71;100.00;96181.13;5060021;28;19939;-68
2022/10/05 08:57:02;;;;;;;;;;;;;;;12.99;100.00;96172.06;5058601;28;20922;-67
2022/10/05 08:59:47;;;;;;;;;;;;;;;13.23;100.00;96167.84;5060049;28;20399;-67
2022/10/05 09:02:32;;;;;;;;;;;;;;;13.58;100.00;96173.38;5057223;28;19925;-67
2022/10/05 09:04:59;;;;;;;;;;;;;;;13.53;100.00;96177.69;5058753;28;19924;-67
2022/10/05 09:07:32;;;;;;;;;;;;;;;13.50;100.00;96178.88;5060071;28;19960;-67
2022/10/05 09:10:25;;;;;;;;;;;;;;;13.60;100.00;96177.63;5058340;28;19935;-67
2022/10/05 09:12:55;;;;;;;;;;;;;;;13.62;100.00;96180.81;5059292;28;20574;-68
2022/10/05 09:15:22;;;;;;;;;;;;;;;13.37;100.00;96179.03;5063061;28;19933;-67
2022/10/05 09:18:10;;;;;;;;;;;;;;;13.86;100.00;96172.09;5057170;28;20704;-67
2022/10/05 09:20:37;;;;;;;;;;;;;;;14.22;100.00;96172.28;5057458;28;19945;-67
2022/10/05 09:23:22;;;;;;;;;;;;;;;14.69;100.00;96181.19;5063775;28;19929;-67
2022/10/05 09:25:57;;;;;;;;;;;;;;;14.39;96.72;96169.88;5054951;28;20034;-67
2022/10/05 09:28:24;;;;;;;;;;;;;;;14.41;94.50;96168.63;5065215;28;20332;-67
2022/10/05 09:30:55;;;;;;;;;;;;;;;14.74;92.26;96182.31;5059252;28;19969;-69
2022/10/05 09:36:58;;;;;;;;;;;;;;;14.48;90.82;96179.03;5060586;28;21451;-69
2022/10/05 09:39:30;;;;;;;;;;;;;;;14.87;87.22;96172.44;5062953;28;20012;-68
2022/10/05 09:42:13;;;;;;;;;;;;;;;15.41;86.96;96177.66;5062688;28;19936;-68
2022/10/05 09:44:58;;;;;;;;;;;;;;;15.74;82.43;96186.78;5059562;28;20340;-69
2022/10/05 09:47:40;;;;;;;;;;;;;;;15.23;81.23;96175.09;5063535;28;19928;-69
2022/10/05 09:50:25;;;;;;;;;;;;;;;15.13;83.14;96180.13;5063110;28;21400;-69
2022/10/05 09:53:03;;;;;;;;;;;;;;;15.48;82.76;96178.34;5063479;28;19925;-68
2022/10/05 09:55:38;;;;;;;;;;;;;;;15.15;82.25;96168.38;5071389;28;19928;-66
2022/10/05 09:58:11;;;;;;;;;;;;;;;15.92;79.87;96171.91;5063841;28;19970;-66
2022/10/05 10:00:41;;;;;;;;;;;;;;;15.53;79.09;96145.34;5065400;28;19928;-67
2022/10/05 10:03:38;;;;;;;;;;;;;;;15.72;79.77;96177.50;5062893;28;19954;-67
2022/10/05 10:06:09;;;;;;;;;;;;;;;15.83;78.85;96174.91;5063726;28;19959;-67
2022/10/05 10:08:53;;;;;;;;;;;;;;;16.06;77.64;96175.88;5065782;28;19981;-67
2022/10/05 10:11:39;;;;;;;;;;;;;;;16.66;75.87;96181.75;5063921;28;20021;-66
2022/10/05 10:14:43;;;;;;;;;;;;;;;17.58;72.10;96175.34;5064790;28;19975;-67
2022/10/05 10:17:27;;;;;;;;;;;;;;;17.10;68.89;96174.09;5022697;28;19940;-67
2022/10/05 10:20:21;;;;;;;;;;;;;;;16.22;71.22;96177.78;5023778;28;19959;-67
2022/10/05 10:23:03;;;;;;;;;;;;;;;16.20;74.80;96174.56;5022700;28;19959;-66
2022/10/05 10:25:39;;;;;;;;;;;;;;;17.07;70.74;96177.19;5069935;28;19931;-71
2022/10/05 10:28:05;;;;;;;;;;;;;;;16.96;68.28;96182.31;5066110;28;20027;-72
2022/10/05 10:30:51;;;;;;;;;;;;;;;16.47;68.82;96179.28;5064926;28;19963;-72
2022/10/05 10:33:38;;;;;;;;;;;;;;;16.56;66.94;96167.34;5061719;28;20749;-71
2022/10/05 10:36:20;;;;;;;;;;;;;;;17.19;68.00;96170.00;5065511;28;19924;-72
2022/10/05 10:38:58;;;;;;;;;;;;;;;17.74;66.03;96165.81;5059205;28;19929;-74
2022/10/05 10:41:44;;;;;;;;;;;;;;;17.87;62.37;96157.56;5064011;28;19959;-74
2022/10/05 10:44:29;;;;;;;;;;;;;;;18.15;61.86;96163.72;5060997;28;19928;-74
2022/10/05 10:47:08;;;;;;;;;;;;;;;17.81;62.17;96160.34;5062978;28;19928;-72
2022/10/05 10:49:44;;;;;;;;;;;;;;;17.91;62.06;96150.75;5061120;28;19929;-71
2022/10/05 10:52:23;;;;;;;;;;;;;;;17.95;61.52;96143.97;5065971;28;19928;-71
2022/10/05 10:55:05;;;;;;;;;;;;;;;18.34;60.40;96140.44;5062263;28;20679;-69
2022/10/05 10:57:31;;;;;;;;;;;;;;;18.02;58.96;96146.41;5065060;28;19932;-69
2022/10/05 11:00:16;;;;;;;;;;;;;;;18.60;59.39;96140.69;5061796;28;19936;-69
2022/10/05 11:02:43;;;;;;;;;;;;;;;19.60;55.51;96148.09;5064357;28;20095;-69
2022/10/05 11:05:28;;;;;;;;;;;;;;;19.21;52.48;96140.44;5064052;28;19928;-68
2022/10/05 11:08:23;;;;;;;;;;;;;;;19.47;51.84;96138.78;5065554;28;19928;-71
2022/10/05 11:11:02;;;;;;;;;;;;;;;20.03;51.53;96120.56;5062910;28;19986;-71
2022/10/05 11:13:38;;;;;;;;;;;;;;;20.09;50.49;96118.72;5063962;28;20495;-71
2022/10/05 11:16:17;;;;;;;;;;;;;;;19.67;50.87;96130.94;5066672;28;19975;-70
2022/10/05 11:18:45;;;;;;;;;;;;;;;19.18;51.88;96125.91;5064042;28;19955;-71
2022/10/05 11:21:30;;;;;;;;;;;;;;;19.07;51.73;96129.53;5064175;28;19929;-70
2022/10/05 11:24:16;;;;;;;;;;;;;;;19.05;52.03;96113.13;5068309;28;19928;-73
2022/10/05 11:27:09;;;;;;;;;;;;;;;18.53;52.76;96115.31;5066253;28;19927;-71
2022/10/05 11:29:58;;;;;;;;;;;;;;;17.96;54.07;96121.03;5065545;28;19929;-70
2022/10/05 11:32:43;;;;;;;;;;;;;;;17.51;55.86;96112.28;5065382;28;19942;-68
2022/10/05 11:35:23;;;;;;;;;;;;;;;17.26;56.40;96110.09;5072183;28;20136;-69
2022/10/05 11:38:09;;;;;;;;;;;;;;;17.08;59.79;96105.09;5067161;28;20717;-70
2022/10/05 11:41:15;;;;;;;;;;;;;;;17.86;58.55;96102.47;5058521;28;19929;-69
2022/10/05 11:44:03;;;;;;;;;;;;;;;18.54;54.40;96106.34;4999763;28;20497;-69
2022/10/05 11:46:50;;;;;;;;;;;;;;;18.59;52.52;96065.25;4999247;28;20020;-68
2022/10/05 11:49:32;;;;;;;;;;;;;;;19.92;50.87;96097.78;5043532;28;19935;-69
2022/10/05 11:51:58;;;;;;;;;;;;;;;21.47;45.83;96106.69;5062050;28;19936;-69
2022/10/05 11:54:44;;;;;;;;;;;;;;;21.20;44.21;96105.09;5060514;28;19925;-69
2022/10/05 11:57:40;;;;;;;;;;;;;;;21.80;44.80;96097.28;5066304;28;20015;-69
2022/10/05 12:00:15;;;;;;;;;;;;;;;22.80;45.43;96089.31;5058097;28;19967;-69
2022/10/05 12:02:54;;;;;;;;;;;;;;;23.76;40.56;96092.09;5063063;28;19932;-69
2022/10/05 12:05:26;;;;;;;;;;;;;;;24.11;39.43;96098.09;5063122;28;20483;-70
2022/10/05 12:08:02;;;;;;;;;;;;;;;22.36;39.71;96092.78;5062943;28;19928;-69
2022/10/05 12:10:30;;;;;;;;;;;;;;;22.36;41.55;96092.78;5066794;28;19928;-69
2022/10/05 12:13:17;;;;;;;;;;;;;;;23.14;40.32;96091.16;5062724;28;19981;-70
2022/10/05 12:15:53;;;;;;;;;;;;;;;24.08;38.34;96098.66;5065123;28;19928;-69
2022/10/05 12:18:40;;;;;;;;;;;;;;;24.73;38.42;96092.69;5095110;27;19978;-70
2022/10/05 12:21:13;;;;;;;;;;;;;;;25.71;34.75;96094.50;5059538;28;19933;-74
2022/10/05 12:23:40;;;;;;;;;;;;;;;26.44;35.05;96099.94;5061353;28;20387;-75
2022/10/05 12:26:15;;;;;;;;;;;;;;;26.59;32.44;96112.16;5060963;28;19929;-70
2022/10/05 12:29:03;;;;;;;;;;;;;;;26.18;32.01;96106.91;5065177;28;19933;-72
2022/10/05 12:31:42;;;;;;;;;;;;;;;25.60;33.07;96102.97;5060676;28;20494;-70
2022/10/05 12:34:23;;;;;;;;;;;;;;;23.52;36.52;96101.97;5068802;28;19981;-69
2022/10/05 12:36:50;;;;;;;;;;;;;;;22.69;37.37;96097.34;5062346;28;20039;-71
2022/10/05 12:39:50;;;;;;;;;;;;;;;21.82;39.82;96100.44;5065805;28;20005;-70
2022/10/05 12:42:30;;;;;;;;;;;;;;;21.09;40.34;96099.03;5061484;28;19989;-70
2022/10/05 12:45:16;;;;;;;;;;;;;;;20.35;42.07;96095.78;5064659;28;19938;-69
2022/10/05 12:48:12;;;;;;;;;;;;;;;19.46;43.58;96102.81;5061758;28;20213;-70
2022/10/05 12:50:39;;;;;;;;;;;;;;;19.31;45.25;96098.25;5051308;28;20017;-71
2022/10/05 12:53:24;;;;;;;;;;;;;;;19.04;45.24;96093.06;5065120;28;19937;-70
2022/10/05 12:56:00;;;;;;;;;;;;;;;18.99;45.97;96093.00;5062470;28;19951;-70
2022/10/05 12:58:37;;;;;;;;;;;;;;;18.94;43.47;96093.75;5060655;28;19935;-67
2022/10/05 13:01:22;;;;;;;;;;;;;;;19.19;44.82;96095.78;5069091;28;19981;-69
2022/10/05 13:03:53;;;;;;;;;;;;;;;19.01;44.52;96093.56;5062945;28;19924;-70
2022/10/05 13:06:40;;;;;;;;;;;;;;;18.82;44.58;96096.59;5073093;28;20426;-70
2022/10/05 13:09:11;;;;;;;;;;;;;;;18.65;43.43;96095.88;5066023;28;19928;-70
2022/10/05 13:11:44;;;;;;;;;;;;;;;20.04;41.27;96095.72;5073641;28;20401;-69
2022/10/05 13:14:15;;;;;;;;;;;;;;;21.15;38.70;96095.28;5064491;28;19971;-68
2022/10/05 13:17:11;;;;;;;;;;;;;;;22.20;36.14;96094.72;5068727;28;19928;-69
2022/10/05 13:19:38;;;;;;;;;;;;;;;24.19;34.56;96088.69;5053934;28;19924;-68
2022/10/05 13:22:26;;;;;;;;;;;;;;;24.64;32.16;96088.34;5074488;28;19941;-68
2022/10/05 13:24:58;;;;;;;;;;;;;;;26.08;30.52;96086.56;5068176;28;20016;-68
2022/10/05 13:27:34;;;;;;;;;;;;;;;26.35;30.00;96096.41;5072312;28;19943;-69
2022/10/05 13:30:03;;;;;;;;;;;;;;;26.10;30.21;96093.19;5064220;28;19940;-68
2022/10/05 13:32:30;;;;;;;;;;;;;;;26.83;29.08;96087.84;5071919;28;19924;-69
2022/10/05 13:35:15;;;;;;;;;;;;;;;26.73;28.61;96090.75;5061049;28;20436;-68
2022/10/05 13:37:54;;;;;;;;;;;;;;;26.59;30.53;96090.00;5083343;28;19989;-68
2022/10/05 13:40:24;;;;;;;;;;;;;;;27.01;29.22;96086.06;5070373;28;19932;-68
2022/10/05 13:42:54;;;;;;;;;;;;;;;25.45;30.46;96080.06;5064713;28;19928;-68
2022/10/05 13:45:25;;;;;;;;;;;;;;;22.78;35.22;96072.84;5061235;28;19998;-68
2022/10/05 13:48:10;;;;;;;;;;;;;;;21.86;36.93;96072.34;5065864;28;19931;-69